メインページ
METAR-TAF:

METAR-TAF

空港 :

セロ・モレノ国際空港

アントファガスタ, チリ

緯度: 23-26S, 経度: 070-26W, 海抜: 135m

現時点の気象観測

当レポートは10分前の18:00(UTC)に作成
南/南西の風 18kt
気温 20°C
湿度 56%
気圧 1016 hPa
視程10km以上
高度2700ftの雲はほとんどない

METAR: SCFA 111800Z 20018KT 9999 FEW027 20/11 Q1016 NOSIG

時間: 15:10 (18:10 UTC)

予報

当レポートは1時間59分前の16:11(UTC)に作成
予報は11日の 18時(UTC)から 12日の 18時(UTC)まで有効
南/南西の風 15kt
視程10km以上
高度2500ftの雲はほとんどない
11日の 22時(UTC)から 12日の 00時(UTC)まで徐々に
高度2000ftの雲は散在している
12日の 02時(UTC)から 12日の 04時(UTC)まで徐々に
の風 4kt
高度2000ftの千切れ雲あり
12日の 15時(UTC)から 12日の 17時(UTC)まで徐々に
南西の風 12kt
高度2200ftの雲はほとんどない

TAF: SCFA 111611Z 1118/1218 20015KT 9999 FEW025 TX20/1118Z TN17/1206Z BECMG 1122/1200 SCT020 BECMG 1202/1204 18004KT BKN020 BECMG 1215/1217 22012KT FEW022

4,000以上の空港の気象観測と天気予報(METAR報とTAF報)

利用可能な観測所は地図上に黄色い丸と赤い丸で示す。

丸の上にカーソルを重ねると観測所名を参照できる。

次にクリックすると気象観測と天気予報を参照できる。

マップの切り替え:黒色「×」印の緑ボタンをクリックして拡大、「-」印の緑ボタンをクリックして縮小、緑色の三角印をクリックして隣りの地図に切り替え


METAR-TAF: